sensor_id;sensor_type;location;lat;lon;timestamp;P1;durP1;ratioP1;P2;durP2;ratioP2
21979;SDS011;11154;48.558;9.234;2022-07-12T00:00:54;3.50;;;2.85;;
21979;SDS011;11154;48.558;9.234;2022-07-12T00:02:57;4.28;;;2.80;;
21979;SDS011;11154;48.558;9.234;2022-07-12T00:04:58;3.42;;;2.92;;
21979;SDS011;11154;48.558;9.234;2022-07-12T00:07:00;3.10;;;2.80;;
21979;SDS011;11154;48.558;9.234;2022-07-12T00:09:02;2.92;;;2.65;;
21979;SDS011;11154;48.558;9.234;2022-07-12T00:11:04;3.17;;;2.88;;
21979;SDS011;11154;48.558;9.234;2022-07-12T00:13:06;4.40;;;2.80;;
21979;SDS011;11154;48.558;9.234;2022-07-12T00:15:08;3.00;;;2.65;;
21979;SDS011;11154;48.558;9.234;2022-07-12T00:17:10;3.30;;;2.92;;
21979;SDS011;11154;48.558;9.234;2022-07-12T00:19:14;4.90;;;2.97;;
21979;SDS011;11154;48.558;9.234;2022-07-12T00:21:15;3.03;;;2.53;;
21979;SDS011;11154;48.558;9.234;2022-07-12T00:23:17;2.60;;;2.30;;
21979;SDS011;11154;48.558;9.234;2022-07-12T00:25:19;2.60;;;2.40;;
21979;SDS011;11154;48.558;9.234;2022-07-12T00:27:20;4.05;;;2.58;;
21979;SDS011;11154;48.558;9.234;2022-07-12T00:29:22;3.05;;;2.58;;
21979;SDS011;11154;48.558;9.234;2022-07-12T00:31:24;2.35;;;2.15;;
21979;SDS011;11154;48.558;9.234;2022-07-12T00:33:26;2.78;;;2.58;;
21979;SDS011;11154;48.558;9.234;2022-07-12T00:35:29;3.08;;;2.72;;
21979;SDS011;11154;48.558;9.234;2022-07-12T00:37:31;3.22;;;2.92;;
21979;SDS011;11154;48.558;9.234;2022-07-12T00:39:33;2.90;;;2.60;;
21979;SDS011;11154;48.558;9.234;2022-07-12T00:41:34;4.35;;;2.40;;
21979;SDS011;11154;48.558;9.234;2022-07-12T00:43:36;3.35;;;2.72;;
21979;SDS011;11154;48.558;9.234;2022-07-12T00:45:38;4.50;;;3.00;;
21979;SDS011;11154;48.558;9.234;2022-07-12T00:47:41;3.42;;;2.83;;
21979;SDS011;11154;48.558;9.234;2022-07-12T00:49:44;3.42;;;3.10;;
21979;SDS011;11154;48.558;9.234;2022-07-12T00:51:47;3.67;;;2.88;;
21979;SDS011;11154;48.558;9.234;2022-07-12T00:53:49;3.20;;;2.90;;
21979;SDS011;11154;48.558;9.234;2022-07-12T00:55:53;3.97;;;3.20;;
21979;SDS011;11154;48.558;9.234;2022-07-12T00:57:55;3.30;;;2.75;;
21979;SDS011;11154;48.558;9.234;2022-07-12T00:59:57;3.20;;;2.90;;
21979;SDS011;11154;48.558;9.234;2022-07-12T01:01:59;3.78;;;3.22;;
21979;SDS011;11154;48.558;9.234;2022-07-12T01:04:01;5.10;;;3.20;;
21979;SDS011;11154;48.558;9.234;2022-07-12T01:06:02;3.17;;;2.80;;
21979;SDS011;11154;48.558;9.234;2022-07-12T01:08:06;2.92;;;2.67;;
21979;SDS011;11154;48.558;9.234;2022-07-12T01:10:09;2.55;;;2.33;;
21979;SDS011;11154;48.558;9.234;2022-07-12T01:12:11;3.30;;;3.00;;
21979;SDS011;11154;48.558;9.234;2022-07-12T01:14:14;3.67;;;2.95;;
21979;SDS011;11154;48.558;9.234;2022-07-12T01:16:16;4.40;;;3.15;;
21979;SDS011;11154;48.558;9.234;2022-07-12T01:18:18;3.22;;;2.92;;
21979;SDS011;11154;48.558;9.234;2022-07-12T01:20:21;3.63;;;3.03;;
21979;SDS011;11154;48.558;9.234;2022-07-12T01:22:25;3.35;;;3.05;;
21979;SDS011;11154;48.558;9.234;2022-07-12T01:24:29;3.00;;;2.70;;
21979;SDS011;11154;48.558;9.234;2022-07-12T01:26:31;3.47;;;2.78;;
21979;SDS011;11154;48.558;9.234;2022-07-12T01:28:33;3.03;;;2.70;;
21979;SDS011;11154;48.558;9.234;2022-07-12T01:30:36;2.95;;;2.58;;
21979;SDS011;11154;48.558;9.234;2022-07-12T01:32:38;3.20;;;2.90;;
21979;SDS011;11154;48.558;9.234;2022-07-12T01:34:40;2.95;;;2.45;;
21979;SDS011;11154;48.558;9.234;2022-07-12T01:36:41;3.67;;;2.90;;
21979;SDS011;11154;48.558;9.234;2022-07-12T01:38:43;2.95;;;2.75;;
21979;SDS011;11154;48.558;9.234;2022-07-12T01:40:46;3.60;;;2.92;;
21979;SDS011;11154;48.558;9.234;2022-07-12T01:42:48;3.00;;;2.70;;
21979;SDS011;11154;48.558;9.234;2022-07-12T01:44:51;3.35;;;2.65;;
21979;SDS011;11154;48.558;9.234;2022-07-12T01:46:54;2.90;;;2.60;;
21979;SDS011;11154;48.558;9.234;2022-07-12T01:48:56;3.50;;;2.97;;
21979;SDS011;11154;48.558;9.234;2022-07-12T01:50:58;4.18;;;3.00;;
21979;SDS011;11154;48.558;9.234;2022-07-12T01:52:59;4.93;;;2.80;;
21979;SDS011;11154;48.558;9.234;2022-07-12T01:55:02;2.90;;;2.70;;
21979;SDS011;11154;48.558;9.234;2022-07-12T01:57:06;3.25;;;2.83;;
21979;SDS011;11154;48.558;9.234;2022-07-12T01:59:07;2.90;;;2.70;;
21979;SDS011;11154;48.558;9.234;2022-07-12T02:01:10;3.28;;;2.80;;
21979;SDS011;11154;48.558;9.234;2022-07-12T02:03:12;2.53;;;2.33;;
21979;SDS011;11154;48.558;9.234;2022-07-12T02:05:13;3.20;;;2.90;;
21979;SDS011;11154;48.558;9.234;2022-07-12T02:07:15;4.07;;;2.90;;
21979;SDS011;11154;48.558;9.234;2022-07-12T02:09:17;3.28;;;2.97;;
21979;SDS011;11154;48.558;9.234;2022-07-12T02:11:19;5.00;;;2.88;;
21979;SDS011;11154;48.558;9.234;2022-07-12T02:13:22;3.13;;;2.72;;
21979;SDS011;11154;48.558;9.234;2022-07-12T02:15:24;3.40;;;3.10;;
21979;SDS011;11154;48.558;9.234;2022-07-12T02:17:26;3.33;;;2.88;;
21979;SDS011;11154;48.558;9.234;2022-07-12T02:19:27;3.22;;;2.92;;
21979;SDS011;11154;48.558;9.234;2022-07-12T02:21:29;3.10;;;2.80;;
21979;SDS011;11154;48.558;9.234;2022-07-12T02:23:31;3.22;;;2.92;;
21979;SDS011;11154;48.558;9.234;2022-07-12T02:25:32;3.58;;;3.17;;
21979;SDS011;11154;48.558;9.234;2022-07-12T02:27:34;3.17;;;2.88;;
21979;SDS011;11154;48.558;9.234;2022-07-12T02:29:37;3.20;;;2.63;;
21979;SDS011;11154;48.558;9.234;2022-07-12T02:31:41;3.50;;;3.17;;
21979;SDS011;11154;48.558;9.234;2022-07-12T02:33:43;3.33;;;2.97;;
21979;SDS011;11154;48.558;9.234;2022-07-12T02:35:45;3.95;;;3.05;;
21979;SDS011;11154;48.558;9.234;2022-07-12T02:37:47;2.92;;;2.63;;
21979;SDS011;11154;48.558;9.234;2022-07-12T02:39:48;3.60;;;3.10;;
21979;SDS011;11154;48.558;9.234;2022-07-12T02:41:50;4.07;;;3.10;;
21979;SDS011;11154;48.558;9.234;2022-07-12T02:43:51;2.95;;;2.70;;
21979;SDS011;11154;48.558;9.234;2022-07-12T02:45:54;3.10;;;2.78;;
21979;SDS011;11154;48.558;9.234;2022-07-12T02:48:03;4.15;;;3.17;;
21979;SDS011;11154;48.558;9.234;2022-07-12T02:50:06;3.90;;;2.95;;
21979;SDS011;11154;48.558;9.234;2022-07-12T02:52:08;4.35;;;2.85;;
21979;SDS011;11154;48.558;9.234;2022-07-12T02:54:10;3.05;;;2.70;;
21979;SDS011;11154;48.558;9.234;2022-07-12T02:56:12;3.20;;;2.90;;
21979;SDS011;11154;48.558;9.234;2022-07-12T02:58:13;3.70;;;3.05;;
21979;SDS011;11154;48.558;9.234;2022-07-12T03:00:15;2.78;;;2.55;;
21979;SDS011;11154;48.558;9.234;2022-07-12T03:02:18;3.35;;;2.75;;
21979;SDS011;11154;48.558;9.234;2022-07-12T03:04:20;3.75;;;2.92;;
21979;SDS011;11154;48.558;9.234;2022-07-12T03:06:21;3.22;;;2.45;;
21979;SDS011;11154;48.558;9.234;2022-07-12T03:08:23;4.05;;;2.88;;
21979;SDS011;11154;48.558;9.234;2022-07-12T03:10:25;3.05;;;2.75;;
21979;SDS011;11154;48.558;9.234;2022-07-12T03:12:28;4.28;;;2.85;;
21979;SDS011;11154;48.558;9.234;2022-07-12T03:14:30;2.70;;;2.50;;
21979;SDS011;11154;48.558;9.234;2022-07-12T03:16:31;3.22;;;2.67;;
21979;SDS011;11154;48.558;9.234;2022-07-12T03:18:34;3.65;;;2.97;;
21979;SDS011;11154;48.558;9.234;2022-07-12T03:20:36;3.40;;;2.88;;
21979;SDS011;11154;48.558;9.234;2022-07-12T03:22:38;4.07;;;3.15;;
21979;SDS011;11154;48.558;9.234;2022-07-12T03:24:39;4.70;;;3.00;;
21979;SDS011;11154;48.558;9.234;2022-07-12T03:26:41;3.33;;;2.45;;
21979;SDS011;11154;48.558;9.234;2022-07-12T03:28:43;3.10;;;2.80;;
21979;SDS011;11154;48.558;9.234;2022-07-12T03:30:45;3.60;;;3.20;;
21979;SDS011;11154;48.558;9.234;2022-07-12T03:32:46;3.38;;;2.78;;
21979;SDS011;11154;48.558;9.234;2022-07-12T03:34:50;3.72;;;3.00;;
21979;SDS011;11154;48.558;9.234;2022-07-12T03:36:52;3.20;;;2.88;;
21979;SDS011;11154;48.558;9.234;2022-07-12T03:38:54;3.28;;;2.63;;
21979;SDS011;11154;48.558;9.234;2022-07-12T03:40:56;3.38;;;2.78;;
21979;SDS011;11154;48.558;9.234;2022-07-12T03:42:57;4.57;;;3.13;;
21979;SDS011;11154;48.558;9.234;2022-07-12T03:44:59;4.22;;;2.88;;
21979;SDS011;11154;48.558;9.234;2022-07-12T03:47:01;5.53;;;3.00;;
21979;SDS011;11154;48.558;9.234;2022-07-12T03:49:03;3.15;;;2.85;;
21979;SDS011;11154;48.558;9.234;2022-07-12T03:51:06;3.67;;;2.90;;
21979;SDS011;11154;48.558;9.234;2022-07-12T03:53:08;5.05;;;3.70;;
21979;SDS011;11154;48.558;9.234;2022-07-12T03:55:10;3.85;;;3.30;;
21979;SDS011;11154;48.558;9.234;2022-07-12T03:57:12;3.47;;;3.15;;
21979;SDS011;11154;48.558;9.234;2022-07-12T03:59:13;3.63;;;2.90;;
21979;SDS011;11154;48.558;9.234;2022-07-12T04:01:15;3.80;;;3.40;;
21979;SDS011;11154;48.558;9.234;2022-07-12T04:03:16;3.45;;;3.13;;
21979;SDS011;11154;48.558;9.234;2022-07-12T04:05:18;3.90;;;3.22;;
21979;SDS011;11154;48.558;9.234;2022-07-12T04:07:21;3.58;;;3.10;;
21979;SDS011;11154;48.558;9.234;2022-07-12T04:09:23;3.22;;;2.92;;
21979;SDS011;11154;48.558;9.234;2022-07-12T04:11:24;4.18;;;3.30;;
21979;SDS011;11154;48.558;9.234;2022-07-12T04:13:27;3.30;;;3.00;;
21979;SDS011;11154;48.558;9.234;2022-07-12T04:15:29;3.95;;;3.20;;
21979;SDS011;11154;48.558;9.234;2022-07-12T04:17:30;4.43;;;3.25;;
21979;SDS011;11154;48.558;9.234;2022-07-12T04:19:32;4.32;;;3.30;;
21979;SDS011;11154;48.558;9.234;2022-07-12T04:21:34;3.17;;;2.88;;
21979;SDS011;11154;48.558;9.234;2022-07-12T04:23:37;4.45;;;3.40;;
21979;SDS011;11154;48.558;9.234;2022-07-12T04:25:39;4.32;;;3.70;;
21979;SDS011;11154;48.558;9.234;2022-07-12T04:27:40;3.33;;;3.03;;
21979;SDS011;11154;48.558;9.234;2022-07-12T04:29:42;5.15;;;3.72;;
21979;SDS011;11154;48.558;9.234;2022-07-12T04:31:44;3.40;;;3.10;;
21979;SDS011;11154;48.558;9.234;2022-07-12T04:33:46;3.45;;;3.00;;
21979;SDS011;11154;48.558;9.234;2022-07-12T04:35:47;3.05;;;2.85;;
21979;SDS011;11154;48.558;9.234;2022-07-12T04:37:49;3.88;;;3.45;;
21979;SDS011;11154;48.558;9.234;2022-07-12T04:39:52;4.80;;;3.60;;
21979;SDS011;11154;48.558;9.234;2022-07-12T04:41:54;5.03;;;3.38;;
21979;SDS011;11154;48.558;9.234;2022-07-12T04:43:56;3.50;;;3.20;;
21979;SDS011;11154;48.558;9.234;2022-07-12T04:46:04;3.50;;;3.20;;
21979;SDS011;11154;48.558;9.234;2022-07-12T04:48:07;3.70;;;3.40;;
21979;SDS011;11154;48.558;9.234;2022-07-12T04:50:09;3.72;;;3.10;;
21979;SDS011;11154;48.558;9.234;2022-07-12T04:52:11;3.80;;;3.50;;
21979;SDS011;11154;48.558;9.234;2022-07-12T04:54:13;3.92;;;3.25;;
21979;SDS011;11154;48.558;9.234;2022-07-12T04:56:16;5.70;;;3.60;;
21979;SDS011;11154;48.558;9.234;2022-07-12T04:58:18;4.60;;;3.25;;
21979;SDS011;11154;48.558;9.234;2022-07-12T05:00:19;3.28;;;2.97;;
21979;SDS011;11154;48.558;9.234;2022-07-12T05:02:21;4.88;;;3.47;;
21979;SDS011;11154;48.558;9.234;2022-07-12T05:04:23;4.13;;;3.58;;
21979;SDS011;11154;48.558;9.234;2022-07-12T05:06:25;4.15;;;3.08;;
21979;SDS011;11154;48.558;9.234;2022-07-12T05:08:26;5.20;;;3.33;;
21979;SDS011;11154;48.558;9.234;2022-07-12T05:10:28;3.80;;;3.50;;
21979;SDS011;11154;48.558;9.234;2022-07-12T05:12:31;3.72;;;3.30;;
21979;SDS011;11154;48.558;9.234;2022-07-12T05:14:33;3.90;;;3.22;;
21979;SDS011;11154;48.558;9.234;2022-07-12T05:16:35;4.10;;;3.70;;
21979;SDS011;11154;48.558;9.234;2022-07-12T05:18:36;4.57;;;3.80;;
21979;SDS011;11154;48.558;9.234;2022-07-12T05:20:38;5.28;;;4.03;;
21979;SDS011;11154;48.558;9.234;2022-07-12T05:22:40;5.35;;;4.00;;
21979;SDS011;11154;48.558;9.234;2022-07-12T05:24:42;4.10;;;3.70;;
21979;SDS011;11154;48.558;9.234;2022-07-12T05:26:44;4.78;;;3.95;;
21979;SDS011;11154;48.558;9.234;2022-07-12T05:28:47;4.60;;;4.20;;
21979;SDS011;11154;48.558;9.234;2022-07-12T05:30:49;4.55;;;4.10;;
21979;SDS011;11154;48.558;9.234;2022-07-12T05:32:50;5.32;;;4.30;;
21979;SDS011;11154;48.558;9.234;2022-07-12T05:34:52;4.63;;;4.22;;
21979;SDS011;11154;48.558;9.234;2022-07-12T05:36:54;5.75;;;4.45;;
21979;SDS011;11154;48.558;9.234;2022-07-12T05:38:56;4.28;;;3.88;;
21979;SDS011;11154;48.558;9.234;2022-07-12T05:40:57;4.65;;;4.25;;
21979;SDS011;11154;48.558;9.234;2022-07-12T05:42:59;5.05;;;4.15;;
21979;SDS011;11154;48.558;9.234;2022-07-12T05:45:03;5.30;;;4.80;;
21979;SDS011;11154;48.558;9.234;2022-07-12T05:47:05;4.60;;;4.18;;
21979;SDS011;11154;48.558;9.234;2022-07-12T05:49:07;6.10;;;4.97;;
21979;SDS011;11154;48.558;9.234;2022-07-12T05:51:09;5.88;;;4.03;;
21979;SDS011;11154;48.558;9.234;2022-07-12T05:53:28;5.30;;;4.43;;
21979;SDS011;11154;48.558;9.234;2022-07-12T05:55:29;5.50;;;4.78;;
21979;SDS011;11154;48.558;9.234;2022-07-12T05:57:31;6.85;;;4.68;;
21979;SDS011;11154;48.558;9.234;2022-07-12T05:59:34;4.75;;;4.35;;
21979;SDS011;11154;48.558;9.234;2022-07-12T06:01:37;5.05;;;4.55;;
21979;SDS011;11154;48.558;9.234;2022-07-12T06:03:38;5.75;;;4.22;;
21979;SDS011;11154;48.558;9.234;2022-07-12T06:05:40;6.07;;;4.80;;
21979;SDS011;11154;48.558;9.234;2022-07-12T06:07:43;4.93;;;4.43;;
21979;SDS011;11154;48.558;9.234;2022-07-12T06:09:44;6.03;;;5.03;;
21979;SDS011;11154;48.558;9.234;2022-07-12T06:11:46;5.25;;;4.75;;
21979;SDS011;11154;48.558;9.234;2022-07-12T06:13:48;5.32;;;4.82;;
21979;SDS011;11154;48.558;9.234;2022-07-12T06:15:50;5.10;;;4.60;;
21979;SDS011;11154;48.558;9.234;2022-07-12T06:17:53;5.00;;;4.50;;
21979;SDS011;11154;48.558;9.234;2022-07-12T06:19:55;5.13;;;4.55;;
21979;SDS011;11154;48.558;9.234;2022-07-12T06:21:57;4.95;;;4.28;;
21979;SDS011;11154;48.558;9.234;2022-07-12T06:23:58;5.68;;;4.45;;
21979;SDS011;11154;48.558;9.234;2022-07-12T06:26:00;6.55;;;4.40;;
21979;SDS011;11154;48.558;9.234;2022-07-12T06:28:02;4.82;;;4.43;;
21979;SDS011;11154;48.558;9.234;2022-07-12T06:30:06;7.75;;;4.25;;
21979;SDS011;11154;48.558;9.234;2022-07-12T06:32:08;4.85;;;4.07;;
21979;SDS011;11154;48.558;9.234;2022-07-12T06:34:11;4.70;;;4.20;;
21979;SDS011;11154;48.558;9.234;2022-07-12T06:36:13;4.68;;;4.18;;
21979;SDS011;11154;48.558;9.234;2022-07-12T06:38:15;5.32;;;4.47;;
21979;SDS011;11154;48.558;9.234;2022-07-12T06:40:17;5.05;;;4.30;;
21979;SDS011;11154;48.558;9.234;2022-07-12T06:42:18;5.00;;;4.32;;
21979;SDS011;11154;48.558;9.234;2022-07-12T06:44:20;6.07;;;4.38;;
21979;SDS011;11154;48.558;9.234;2022-07-12T06:46:22;5.68;;;4.40;;
21979;SDS011;11154;48.558;9.234;2022-07-12T06:48:23;5.32;;;3.85;;
21979;SDS011;11154;48.558;9.234;2022-07-12T06:50:26;5.15;;;4.40;;
21979;SDS011;11154;48.558;9.234;2022-07-12T06:52:28;4.57;;;3.65;;
21979;SDS011;11154;48.558;9.234;2022-07-12T06:54:30;3.88;;;3.50;;
21979;SDS011;11154;48.558;9.234;2022-07-12T06:56:31;41.92;;;3.95;;
21979;SDS011;11154;48.558;9.234;2022-07-12T06:58:33;3.85;;;3.40;;
21979;SDS011;11154;48.558;9.234;2022-07-12T07:00:35;4.07;;;3.17;;
21979;SDS011;11154;48.558;9.234;2022-07-12T07:02:37;3.65;;;3.33;;
21979;SDS011;11154;48.558;9.234;2022-07-12T07:04:39;3.85;;;2.85;;
21979;SDS011;11154;48.558;9.234;2022-07-12T07:06:42;3.95;;;3.38;;
21979;SDS011;11154;48.558;9.234;2022-07-12T07:08:44;3.10;;;2.90;;
21979;SDS011;11154;48.558;9.234;2022-07-12T07:10:46;3.60;;;3.00;;
21979;SDS011;11154;48.558;9.234;2022-07-12T07:12:47;3.55;;;3.22;;
21979;SDS011;11154;48.558;9.234;2022-07-12T07:14:49;3.72;;;3.15;;
21979;SDS011;11154;48.558;9.234;2022-07-12T07:16:52;4.50;;;2.72;;
21979;SDS011;11154;48.558;9.234;2022-07-12T07:18:54;5.15;;;2.83;;
21979;SDS011;11154;48.558;9.234;2022-07-12T07:20:55;4.57;;;2.88;;
21979;SDS011;11154;48.558;9.234;2022-07-12T07:23:00;5.40;;;3.13;;
21979;SDS011;11154;48.558;9.234;2022-07-12T07:25:02;3.15;;;2.90;;
21979;SDS011;11154;48.558;9.234;2022-07-12T07:27:04;3.35;;;3.05;;
21979;SDS011;11154;48.558;9.234;2022-07-12T07:29:06;4.38;;;2.70;;
21979;SDS011;11154;48.558;9.234;2022-07-12T07:31:25;4.15;;;2.90;;
21979;SDS011;11154;48.558;9.234;2022-07-12T07:33:26;3.30;;;2.53;;
21979;SDS011;11154;48.558;9.234;2022-07-12T07:35:28;2.30;;;2.10;;
21979;SDS011;11154;48.558;9.234;2022-07-12T07:37:30;2.47;;;2.28;;
21979;SDS011;11154;48.558;9.234;2022-07-12T07:39:34;2.20;;;1.92;;
21979;SDS011;11154;48.558;9.234;2022-07-12T07:41:36;2.45;;;2.20;;
21979;SDS011;11154;48.558;9.234;2022-07-12T07:43:37;3.58;;;1.90;;
21979;SDS011;11154;48.558;9.234;2022-07-12T07:45:39;2.22;;;1.60;;
21979;SDS011;11154;48.558;9.234;2022-07-12T07:47:44;2.35;;;1.70;;
21979;SDS011;11154;48.558;9.234;2022-07-12T07:49:47;1.23;;;1.10;;
21979;SDS011;11154;48.558;9.234;2022-07-12T07:51:48;1.30;;;1.20;;
21979;SDS011;11154;48.558;9.234;2022-07-12T07:53:50;1.50;;;1.25;;
21979;SDS011;11154;48.558;9.234;2022-07-12T07:55:53;2.25;;;1.35;;
21979;SDS011;11154;48.558;9.234;2022-07-12T07:57:55;1.60;;;1.17;;
21979;SDS011;11154;48.558;9.234;2022-07-12T07:59:59;1.00;;;1.00;;
21979;SDS011;11154;48.558;9.234;2022-07-12T08:02:01;1.48;;;1.23;;
21979;SDS011;11154;48.558;9.234;2022-07-12T08:04:03;1.63;;;1.08;;
21979;SDS011;11154;48.558;9.234;2022-07-12T08:06:05;1.25;;;1.13;;
21979;SDS011;11154;48.558;9.234;2022-07-12T08:08:06;1.10;;;1.00;;
21979;SDS011;11154;48.558;9.234;2022-07-12T08:10:08;1.10;;;1.00;;
21979;SDS011;11154;48.558;9.234;2022-07-12T08:12:11;1.50;;;1.10;;
21979;SDS011;11154;48.558;9.234;2022-07-12T08:14:14;0.88;;;0.88;;
21979;SDS011;11154;48.558;9.234;2022-07-12T08:16:15;1.20;;;1.10;;
21979;SDS011;11154;48.558;9.234;2022-07-12T08:18:17;1.92;;;1.20;;
21979;SDS011;11154;48.558;9.234;2022-07-12T08:20:19;1.30;;;1.20;;
21979;SDS011;11154;48.558;9.234;2022-07-12T08:22:20;1.35;;;1.08;;
21979;SDS011;11154;48.558;9.234;2022-07-12T08:24:22;1.00;;;0.90;;
21979;SDS011;11154;48.558;9.234;2022-07-12T08:26:24;1.13;;;1.00;;
21979;SDS011;11154;48.558;9.234;2022-07-12T08:28:27;2.85;;;1.10;;
21979;SDS011;11154;48.558;9.234;2022-07-12T08:30:29;1.25;;;1.10;;
21979;SDS011;11154;48.558;9.234;2022-07-12T08:32:30;1.10;;;0.90;;
21979;SDS011;11154;48.558;9.234;2022-07-12T08:34:32;1.58;;;1.05;;
21979;SDS011;11154;48.558;9.234;2022-07-12T08:36:34;0.70;;;0.70;;
21979;SDS011;11154;48.558;9.234;2022-07-12T08:38:35;1.27;;;0.85;;
21979;SDS011;11154;48.558;9.234;2022-07-12T08:40:37;1.98;;;0.80;;
21979;SDS011;11154;48.558;9.234;2022-07-12T08:42:40;0.75;;;0.55;;
21979;SDS011;11154;48.558;9.234;2022-07-12T08:44:44;1.10;;;0.60;;
21979;SDS011;11154;48.558;9.234;2022-07-12T08:46:54;0.45;;;0.45;;
21979;SDS011;11154;48.558;9.234;2022-07-12T08:48:56;2.47;;;1.00;;
21979;SDS011;11154;48.558;9.234;2022-07-12T08:51:01;1.80;;;0.70;;
21979;SDS011;11154;48.558;9.234;2022-07-12T08:53:05;1.38;;;1.13;;
21979;SDS011;11154;48.558;9.234;2022-07-12T08:55:18;0.80;;;0.63;;
21979;SDS011;11154;48.558;9.234;2022-07-12T08:57:28;0.70;;;0.63;;
21979;SDS011;11154;48.558;9.234;2022-07-12T08:59:31;0.85;;;0.80;;
21979;SDS011;11154;48.558;9.234;2022-07-12T09:01:40;1.17;;;0.80;;
21979;SDS011;11154;48.558;9.234;2022-07-12T09:03:43;3.10;;;1.05;;
21979;SDS011;11154;48.558;9.234;2022-07-12T09:05:48;1.27;;;0.75;;
21979;SDS011;11154;48.558;9.234;2022-07-12T09:08:00;1.17;;;0.90;;
21979;SDS011;11154;48.558;9.234;2022-07-12T09:10:03;2.58;;;1.30;;
21979;SDS011;11154;48.558;9.234;2022-07-12T09:12:06;1.10;;;1.00;;
21979;SDS011;11154;48.558;9.234;2022-07-12T09:14:08;4.80;;;1.33;;
21979;SDS011;11154;48.558;9.234;2022-07-12T09:16:13;1.73;;;0.90;;
21979;SDS011;11154;48.558;9.234;2022-07-12T09:18:16;1.00;;;0.90;;
21979;SDS011;11154;48.558;9.234;2022-07-12T09:20:26;1.00;;;0.80;;
21979;SDS011;11154;48.558;9.234;2022-07-12T09:22:28;0.82;;;0.80;;
21979;SDS011;11154;48.558;9.234;2022-07-12T09:24:30;0.85;;;0.70;;
21979;SDS011;11154;48.558;9.234;2022-07-12T09:26:32;1.88;;;0.70;;
21979;SDS011;11154;48.558;9.234;2022-07-12T09:28:34;0.77;;;0.77;;
21979;SDS011;11154;48.558;9.234;2022-07-12T09:30:36;0.75;;;0.63;;
21979;SDS011;11154;48.558;9.234;2022-07-12T09:32:51;2.38;;;0.80;;
21979;SDS011;11154;48.558;9.234;2022-07-12T09:35:17;1.27;;;0.85;;
21979;SDS011;11154;48.558;9.234;2022-07-12T09:37:38;0.88;;;0.60;;
21979;SDS011;11154;48.558;9.234;2022-07-12T09:39:41;2.45;;;1.00;;
21979;SDS011;11154;48.558;9.234;2022-07-12T09:41:43;1.40;;;0.90;;
21979;SDS011;11154;48.558;9.234;2022-07-12T09:43:45;2.00;;;1.08;;
21979;SDS011;11154;48.558;9.234;2022-07-12T09:45:47;2.10;;;1.20;;
21979;SDS011;11154;48.558;9.234;2022-07-12T09:47:50;1.80;;;1.30;;
21979;SDS011;11154;48.558;9.234;2022-07-12T09:49:53;1.73;;;1.20;;
21979;SDS011;11154;48.558;9.234;2022-07-12T09:51:57;1.10;;;1.00;;
21979;SDS011;11154;48.558;9.234;2022-07-12T09:54:00;1.42;;;1.10;;
21979;SDS011;11154;48.558;9.234;2022-07-12T09:56:05;2.35;;;1.25;;
21979;SDS011;11154;48.558;9.234;2022-07-12T09:58:08;1.65;;;1.25;;
21979;SDS011;11154;48.558;9.234;2022-07-12T10:00:13;1.40;;;1.30;;
21979;SDS011;11154;48.558;9.234;2022-07-12T10:02:15;1.20;;;1.10;;
21979;SDS011;11154;48.558;9.234;2022-07-12T10:04:20;1.95;;;1.15;;
21979;SDS011;11154;48.558;9.234;2022-07-12T10:06:24;1.13;;;1.02;;
21979;SDS011;11154;48.558;9.234;2022-07-12T10:08:28;1.58;;;1.13;;
21979;SDS011;11154;48.558;9.234;2022-07-12T10:10:31;1.50;;;1.40;;
21979;SDS011;11154;48.558;9.234;2022-07-12T10:12:33;3.25;;;1.33;;
21979;SDS011;11154;48.558;9.234;2022-07-12T10:14:35;1.65;;;0.90;;
21979;SDS011;11154;48.558;9.234;2022-07-12T10:16:38;0.90;;;0.90;;
21979;SDS011;11154;48.558;9.234;2022-07-12T10:18:43;0.75;;;0.70;;
21979;SDS011;11154;48.558;9.234;2022-07-12T10:20:45;1.00;;;0.80;;
21979;SDS011;11154;48.558;9.234;2022-07-12T10:22:47;0.98;;;0.73;;
21979;SDS011;11154;48.558;9.234;2022-07-12T10:24:53;1.08;;;0.98;;
21979;SDS011;11154;48.558;9.234;2022-07-12T10:26:55;1.75;;;0.90;;
21979;SDS011;11154;48.558;9.234;2022-07-12T10:29:00;1.35;;;1.08;;
21979;SDS011;11154;48.558;9.234;2022-07-12T10:31:04;1.13;;;1.00;;
21979;SDS011;11154;48.558;9.234;2022-07-12T10:33:14;1.58;;;1.00;;
21979;SDS011;11154;48.558;9.234;2022-07-12T10:35:17;1.35;;;1.10;;
21979;SDS011;11154;48.558;9.234;2022-07-12T10:37:21;1.38;;;0.88;;
21979;SDS011;11154;48.558;9.234;2022-07-12T10:39:23;1.38;;;0.73;;
21979;SDS011;11154;48.558;9.234;2022-07-12T10:41:27;1.70;;;0.90;;
21979;SDS011;11154;48.558;9.234;2022-07-12T10:43:28;1.48;;;1.00;;
21979;SDS011;11154;48.558;9.234;2022-07-12T10:45:48;0.90;;;0.75;;
21979;SDS011;11154;48.558;9.234;2022-07-12T10:47:53;1.67;;;0.90;;
21979;SDS011;11154;48.558;9.234;2022-07-12T10:49:56;1.00;;;0.90;;
21979;SDS011;11154;48.558;9.234;2022-07-12T10:52:16;6.13;;;0.90;;
21979;SDS011;11154;48.558;9.234;2022-07-12T10:54:27;2.15;;;1.25;;
21979;SDS011;11154;48.558;9.234;2022-07-12T10:56:30;1.23;;;0.90;;
21979;SDS011;11154;48.558;9.234;2022-07-12T10:58:37;0.80;;;0.70;;
21979;SDS011;11154;48.558;9.234;2022-07-12T11:00:41;1.23;;;0.70;;
21979;SDS011;11154;48.558;9.234;2022-07-12T11:02:45;3.85;;;0.88;;
21979;SDS011;11154;48.558;9.234;2022-07-12T11:04:49;1.02;;;0.77;;
21979;SDS011;11154;48.558;9.234;2022-07-12T11:06:51;1.00;;;0.90;;
21979;SDS011;11154;48.558;9.234;2022-07-12T11:08:57;1.50;;;0.90;;
21979;SDS011;11154;48.558;9.234;2022-07-12T11:11:00;1.27;;;1.10;;
21979;SDS011;11154;48.558;9.234;2022-07-12T11:13:03;1.35;;;0.80;;
21979;SDS011;11154;48.558;9.234;2022-07-12T11:15:21;0.93;;;0.90;;
21979;SDS011;11154;48.558;9.234;2022-07-12T11:17:25;0.60;;;0.60;;
21979;SDS011;11154;48.558;9.234;2022-07-12T11:19:27;1.20;;;0.90;;
21979;SDS011;11154;48.558;9.234;2022-07-12T11:21:31;1.88;;;0.90;;
21979;SDS011;11154;48.558;9.234;2022-07-12T11:23:32;1.38;;;1.02;;
21979;SDS011;11154;48.558;9.234;2022-07-12T11:25:34;0.80;;;0.80;;
21979;SDS011;11154;48.558;9.234;2022-07-12T11:27:36;0.75;;;0.75;;
21979;SDS011;11154;48.558;9.234;2022-07-12T11:29:40;1.00;;;0.90;;
21979;SDS011;11154;48.558;9.234;2022-07-12T11:32:01;1.00;;;0.80;;
21979;SDS011;11154;48.558;9.234;2022-07-12T11:34:06;1.33;;;0.90;;
21979;SDS011;11154;48.558;9.234;2022-07-12T11:36:08;0.85;;;0.60;;
21979;SDS011;11154;48.558;9.234;2022-07-12T11:38:10;1.05;;;0.80;;
21979;SDS011;11154;48.558;9.234;2022-07-12T11:40:12;1.60;;;0.70;;
21979;SDS011;11154;48.558;9.234;2022-07-12T11:42:14;0.95;;;0.70;;
21979;SDS011;11154;48.558;9.234;2022-07-12T11:44:16;1.20;;;0.60;;
21979;SDS011;11154;48.558;9.234;2022-07-12T11:46:19;1.00;;;0.70;;
21979;SDS011;11154;48.558;9.234;2022-07-12T11:48:21;3.28;;;0.70;;
21979;SDS011;11154;48.558;9.234;2022-07-12T11:50:23;0.77;;;0.60;;
21979;SDS011;11154;48.558;9.234;2022-07-12T11:52:25;1.40;;;0.68;;
21979;SDS011;11154;48.558;9.234;2022-07-12T11:54:26;1.23;;;0.70;;
21979;SDS011;11154;48.558;9.234;2022-07-12T11:56:29;1.67;;;0.70;;
21979;SDS011;11154;48.558;9.234;2022-07-12T11:58:32;0.70;;;0.68;;
21979;SDS011;11154;48.558;9.234;2022-07-12T12:00:38;0.57;;;0.50;;
21979;SDS011;11154;48.558;9.234;2022-07-12T12:02:41;0.80;;;0.50;;
21979;SDS011;11154;48.558;9.234;2022-07-12T12:04:43;0.60;;;0.60;;
21979;SDS011;11154;48.558;9.234;2022-07-12T12:06:47;1.00;;;0.60;;
21979;SDS011;11154;48.558;9.234;2022-07-12T12:08:50;1.80;;;0.70;;
21979;SDS011;11154;48.558;9.234;2022-07-12T12:10:52;1.27;;;0.60;;
21979;SDS011;11154;48.558;9.234;2022-07-12T12:12:57;0.63;;;0.50;;
21979;SDS011;11154;48.558;9.234;2022-07-12T12:15:01;1.60;;;0.80;;
21979;SDS011;11154;48.558;9.234;2022-07-12T12:17:10;2.38;;;1.75;;
21979;SDS011;11154;48.558;9.234;2022-07-12T12:19:14;1.13;;;0.50;;
21979;SDS011;11154;48.558;9.234;2022-07-12T12:21:16;0.50;;;0.50;;